Strona główna
METAR-TAF:

METAR-TAF

Lotnisko :

Port lotniczy Madryt-Barajas

Madryt, Hiszpania

Szerokość geograficzna: 40-27N, Długość geograficzna: 003-33W, wysokość: 609 m

Aktualna obserwacja pogody

Raport powstał 40 minut temu, godzina 12:00 UTC
Wiatr 1 kt od północny zachód
Temperatura 20°C
Wilgotność 53%
Ciśnienie 1016 hPa
Widzialność 10 km lub więcej
Brak chmur poniżej 1500 m i brak chmur cumulonimbus

METAR: LEMD 161200Z 31001KT CAVOK 20/10 Q1016 NOSIG

czas: 14:40 (12:40 UTC)

Prognoza

Raport powstał 1 godzina i 40 minut temu, godzina 11:00 UTC
Prognoza ważna od 16 godzina 12 UTC do 17 godzina 18 UTC
Wiatr 5 kt z kierunków zmiennych
Widzialność 10 km lub więcej
Brak chmur poniżej 1500 m i brak chmur cumulonimbus

TAF: LEMD 161100Z 1612/1718 VRB05KT CAVOK TX22/1615Z TN09/1706Z

Obserwacja i prognoza pogody dla ponad 4000 lotnisk (raport METAR i TAF).

Dostępne stacje oznaczono żółtymi i czerwonymi punktami na mapie.

Najedź kursorem aby zobaczyć nazwę stacji.

Kliknij aby zobaczyć obserwacje i prognozy pogody.

Aby zmienić mapę: kliknij na zielony przycisk z czarnym krzyżykiem, aby powiększyć; na zielony przycisk z myślnikiem, aby pomniejszyć; na zielone strzałki, aby przejść do map sąsiednich.


METAR-TAF: